sensor_id;sensor_type;location;lat;lon;timestamp;P1;durP1;ratioP1;P2;durP2;ratioP2
52126;SDS011;38120;53.176;6.614;2022-11-10T00:00:41;12.43;;;2.20;;
52126;SDS011;38120;53.176;6.614;2022-11-10T00:03:08;8.23;;;1.90;;
52126;SDS011;38120;53.176;6.614;2022-11-10T00:05:35;10.85;;;2.92;;
52126;SDS011;38120;53.176;6.614;2022-11-10T00:08:03;7.53;;;2.30;;
52126;SDS011;38120;53.176;6.614;2022-11-10T00:10:30;5.22;;;2.08;;
52126;SDS011;38120;53.176;6.614;2022-11-10T00:13:00;9.63;;;2.33;;
52126;SDS011;38120;53.176;6.614;2022-11-10T00:15:27;7.60;;;2.20;;
52126;SDS011;38120;53.176;6.614;2022-11-10T00:18:11;6.93;;;2.33;;
52126;SDS011;38120;53.176;6.614;2022-11-10T00:20:37;10.27;;;2.73;;
52126;SDS011;38120;53.176;6.614;2022-11-10T00:23:03;6.25;;;2.20;;
52126;SDS011;38120;53.176;6.614;2022-11-10T00:25:30;10.60;;;2.57;;
52126;SDS011;38120;53.176;6.614;2022-11-10T00:27:57;8.90;;;2.72;;
52126;SDS011;38120;53.176;6.614;2022-11-10T00:30:24;7.97;;;3.00;;
52126;SDS011;38120;53.176;6.614;2022-11-10T00:32:50;9.90;;;2.90;;
52126;SDS011;38120;53.176;6.614;2022-11-10T00:35:16;13.37;;;2.70;;
52126;SDS011;38120;53.176;6.614;2022-11-10T00:37:41;8.65;;;2.78;;
52126;SDS011;38120;53.176;6.614;2022-11-10T00:40:07;5.60;;;2.53;;
52126;SDS011;38120;53.176;6.614;2022-11-10T00:42:33;6.97;;;2.70;;
52126;SDS011;38120;53.176;6.614;2022-11-10T00:44:59;7.30;;;2.33;;
52126;SDS011;38120;53.176;6.614;2022-11-10T00:47:25;10.63;;;3.20;;
52126;SDS011;38120;53.176;6.614;2022-11-10T00:49:50;7.47;;;2.80;;
52126;SDS011;38120;53.176;6.614;2022-11-10T00:52:16;7.33;;;2.57;;
52126;SDS011;38120;53.176;6.614;2022-11-10T00:54:42;10.77;;;2.77;;
52126;SDS011;38120;53.176;6.614;2022-11-10T00:57:07;8.53;;;3.00;;
52126;SDS011;38120;53.176;6.614;2022-11-10T00:59:33;9.20;;;2.40;;
52126;SDS011;38120;53.176;6.614;2022-11-10T01:01:59;13.03;;;3.17;;
52126;SDS011;38120;53.176;6.614;2022-11-10T01:04:24;10.57;;;3.43;;
52126;SDS011;38120;53.176;6.614;2022-11-10T01:06:50;9.93;;;2.97;;
52126;SDS011;38120;53.176;6.614;2022-11-10T01:09:16;15.45;;;4.78;;
52126;SDS011;38120;53.176;6.614;2022-11-10T01:11:42;13.00;;;2.90;;
52126;SDS011;38120;53.176;6.614;2022-11-10T01:14:08;13.30;;;2.87;;
52126;SDS011;38120;53.176;6.614;2022-11-10T01:16:34;11.13;;;2.95;;
52126;SDS011;38120;53.176;6.614;2022-11-10T01:19:00;10.55;;;2.83;;
52126;SDS011;38120;53.176;6.614;2022-11-10T01:21:27;9.40;;;3.55;;
52126;SDS011;38120;53.176;6.614;2022-11-10T01:23:54;7.65;;;2.92;;
52126;SDS011;38120;53.176;6.614;2022-11-10T01:26:20;11.75;;;3.17;;
52126;SDS011;38120;53.176;6.614;2022-11-10T01:31:13;8.48;;;3.33;;
52126;SDS011;38120;53.176;6.614;2022-11-10T01:33:42;12.63;;;3.13;;
52126;SDS011;38120;53.176;6.614;2022-11-10T01:36:08;20.42;;;4.10;;
52126;SDS011;38120;53.176;6.614;2022-11-10T01:38:36;14.85;;;3.92;;
52126;SDS011;38120;53.176;6.614;2022-11-10T01:41:06;9.23;;;3.10;;
52126;SDS011;38120;53.176;6.614;2022-11-10T01:43:34;9.05;;;3.78;;
52126;SDS011;38120;53.176;6.614;2022-11-10T01:48:38;14.75;;;3.28;;
52126;SDS011;38120;53.176;6.614;2022-11-10T01:51:17;21.55;;;3.90;;
52126;SDS011;38120;53.176;6.614;2022-11-10T01:53:52;13.50;;;4.57;;
52126;SDS011;38120;53.176;6.614;2022-11-10T01:56:23;9.90;;;3.95;;
52126;SDS011;38120;53.176;6.614;2022-11-10T01:58:58;9.82;;;3.80;;
52126;SDS011;38120;53.176;6.614;2022-11-10T02:01:26;13.27;;;4.72;;
52126;SDS011;38120;53.176;6.614;2022-11-10T02:03:53;13.30;;;4.40;;
52126;SDS011;38120;53.176;6.614;2022-11-10T02:06:21;13.68;;;4.55;;
52126;SDS011;38120;53.176;6.614;2022-11-10T02:08:50;11.75;;;4.63;;
52126;SDS011;38120;53.176;6.614;2022-11-10T02:11:18;14.50;;;4.78;;
52126;SDS011;38120;53.176;6.614;2022-11-10T02:13:44;15.38;;;4.68;;
52126;SDS011;38120;53.176;6.614;2022-11-10T02:16:10;13.82;;;4.43;;
52126;SDS011;38120;53.176;6.614;2022-11-10T02:18:36;11.70;;;5.23;;
52126;SDS011;38120;53.176;6.614;2022-11-10T02:21:06;16.10;;;5.45;;
52126;SDS011;38120;53.176;6.614;2022-11-10T02:26:02;12.35;;;4.70;;
52126;SDS011;38120;53.176;6.614;2022-11-10T02:28:33;11.38;;;4.65;;
52126;SDS011;38120;53.176;6.614;2022-11-10T02:31:01;14.95;;;5.10;;
52126;SDS011;38120;53.176;6.614;2022-11-10T02:33:27;15.40;;;5.30;;
52126;SDS011;38120;53.176;6.614;2022-11-10T02:35:53;14.63;;;4.97;;
52126;SDS011;38120;53.176;6.614;2022-11-10T02:38:18;12.53;;;5.53;;
52126;SDS011;38120;53.176;6.614;2022-11-10T02:40:44;14.00;;;4.35;;
52126;SDS011;38120;53.176;6.614;2022-11-10T02:43:11;12.88;;;5.88;;
52126;SDS011;38120;53.176;6.614;2022-11-10T02:45:38;9.57;;;4.75;;
52126;SDS011;38120;53.176;6.614;2022-11-10T02:48:08;11.93;;;5.30;;
52126;SDS011;38120;53.176;6.614;2022-11-10T02:50:34;16.58;;;5.00;;
52126;SDS011;38120;53.176;6.614;2022-11-10T02:53:00;13.40;;;5.68;;
52126;SDS011;38120;53.176;6.614;2022-11-10T02:55:26;13.97;;;5.17;;
52126;SDS011;38120;53.176;6.614;2022-11-10T02:57:51;9.80;;;4.90;;
52126;SDS011;38120;53.176;6.614;2022-11-10T03:00:17;11.47;;;5.23;;
52126;SDS011;38120;53.176;6.614;2022-11-10T03:02:43;10.70;;;4.47;;
52126;SDS011;38120;53.176;6.614;2022-11-10T03:05:09;13.15;;;5.00;;
52126;SDS011;38120;53.176;6.614;2022-11-10T03:07:35;17.40;;;6.55;;
52126;SDS011;38120;53.176;6.614;2022-11-10T03:10:01;17.88;;;5.47;;
52126;SDS011;38120;53.176;6.614;2022-11-10T03:12:27;17.92;;;5.60;;
52126;SDS011;38120;53.176;6.614;2022-11-10T03:14:53;20.77;;;5.53;;
52126;SDS011;38120;53.176;6.614;2022-11-10T03:17:18;16.50;;;4.97;;
52126;SDS011;38120;53.176;6.614;2022-11-10T03:19:44;15.23;;;6.13;;
52126;SDS011;38120;53.176;6.614;2022-11-10T03:22:10;15.07;;;5.50;;
52126;SDS011;38120;53.176;6.614;2022-11-10T03:24:35;10.70;;;4.27;;
52126;SDS011;38120;53.176;6.614;2022-11-10T03:27:01;13.00;;;5.37;;
52126;SDS011;38120;53.176;6.614;2022-11-10T03:29:27;14.43;;;5.40;;
52126;SDS011;38120;53.176;6.614;2022-11-10T03:31:52;14.40;;;5.23;;
52126;SDS011;38120;53.176;6.614;2022-11-10T03:34:18;10.93;;;4.85;;
52126;SDS011;38120;53.176;6.614;2022-11-10T03:36:44;15.07;;;5.13;;
52126;SDS011;38120;53.176;6.614;2022-11-10T03:39:09;12.07;;;6.10;;
52126;SDS011;38120;53.176;6.614;2022-11-10T03:41:35;17.97;;;4.87;;
52126;SDS011;38120;53.176;6.614;2022-11-10T03:44:01;15.47;;;4.77;;
52126;SDS011;38120;53.176;6.614;2022-11-10T03:46:26;12.68;;;4.57;;
52126;SDS011;38120;53.176;6.614;2022-11-10T03:48:52;16.10;;;5.00;;
52126;SDS011;38120;53.176;6.614;2022-11-10T03:51:18;14.23;;;4.30;;
52126;SDS011;38120;53.176;6.614;2022-11-10T03:53:44;12.13;;;4.77;;
52126;SDS011;38120;53.176;6.614;2022-11-10T03:56:09;16.50;;;4.63;;
52126;SDS011;38120;53.176;6.614;2022-11-10T04:01:02;17.58;;;4.20;;
52126;SDS011;38120;53.176;6.614;2022-11-10T04:03:27;13.20;;;5.03;;
52126;SDS011;38120;53.176;6.614;2022-11-10T04:05:53;11.73;;;4.30;;
52126;SDS011;38120;53.176;6.614;2022-11-10T04:08:37;21.02;;;4.50;;
52126;SDS011;38120;53.176;6.614;2022-11-10T04:11:21;14.75;;;4.90;;
52126;SDS011;38120;53.176;6.614;2022-11-10T04:14:06;15.10;;;5.03;;
52126;SDS011;38120;53.176;6.614;2022-11-10T04:16:50;14.18;;;4.60;;
52126;SDS011;38120;53.176;6.614;2022-11-10T04:19:16;12.70;;;5.20;;
52126;SDS011;38120;53.176;6.614;2022-11-10T04:21:41;13.10;;;5.67;;
52126;SDS011;38120;53.176;6.614;2022-11-10T04:24:07;12.17;;;5.17;;
52126;SDS011;38120;53.176;6.614;2022-11-10T04:26:33;15.85;;;6.68;;
52126;SDS011;38120;53.176;6.614;2022-11-10T04:29:03;15.00;;;5.15;;
52126;SDS011;38120;53.176;6.614;2022-11-10T04:31:31;25.63;;;5.85;;
52126;SDS011;38120;53.176;6.614;2022-11-10T04:33:59;19.65;;;5.95;;
52126;SDS011;38120;53.176;6.614;2022-11-10T04:36:28;11.97;;;4.67;;
52126;SDS011;38120;53.176;6.614;2022-11-10T04:38:55;13.05;;;5.20;;
52126;SDS011;38120;53.176;6.614;2022-11-10T04:41:22;20.58;;;6.38;;
52126;SDS011;38120;53.176;6.614;2022-11-10T04:43:49;14.48;;;5.15;;
52126;SDS011;38120;53.176;6.614;2022-11-10T04:48:57;19.55;;;6.15;;
52126;SDS011;38120;53.176;6.614;2022-11-10T04:51:27;19.55;;;6.18;;
52126;SDS011;38120;53.176;6.614;2022-11-10T04:53:54;14.23;;;5.65;;
52126;SDS011;38120;53.176;6.614;2022-11-10T04:56:22;14.88;;;5.90;;
52126;SDS011;38120;53.176;6.614;2022-11-10T04:58:49;16.27;;;6.40;;
52126;SDS011;38120;53.176;6.614;2022-11-10T05:01:18;20.88;;;6.25;;
52126;SDS011;38120;53.176;6.614;2022-11-10T05:03:46;18.77;;;6.75;;
52126;SDS011;38120;53.176;6.614;2022-11-10T05:08:39;14.75;;;5.97;;
52126;SDS011;38120;53.176;6.614;2022-11-10T05:11:05;15.60;;;5.88;;
52126;SDS011;38120;53.176;6.614;2022-11-10T05:13:31;18.97;;;6.17;;
52126;SDS011;38120;53.176;6.614;2022-11-10T05:15:57;13.55;;;5.40;;
52126;SDS011;38120;53.176;6.614;2022-11-10T05:18:23;19.48;;;6.22;;
52126;SDS011;38120;53.176;6.614;2022-11-10T05:20:48;17.60;;;5.73;;
52126;SDS011;38120;53.176;6.614;2022-11-10T05:23:14;15.60;;;5.82;;
52126;SDS011;38120;53.176;6.614;2022-11-10T05:25:58;16.63;;;5.47;;
52126;SDS011;38120;53.176;6.614;2022-11-10T05:28:24;19.63;;;5.33;;
52126;SDS011;38120;53.176;6.614;2022-11-10T05:30:50;16.67;;;5.35;;
52126;SDS011;38120;53.176;6.614;2022-11-10T05:33:16;16.95;;;5.70;;
52126;SDS011;38120;53.176;6.614;2022-11-10T05:35:42;17.90;;;6.95;;
52126;SDS011;38120;53.176;6.614;2022-11-10T05:38:08;16.35;;;5.00;;
52126;SDS011;38120;53.176;6.614;2022-11-10T05:40:34;13.38;;;5.38;;
52126;SDS011;38120;53.176;6.614;2022-11-10T05:43:00;22.77;;;5.95;;
52126;SDS011;38120;53.176;6.614;2022-11-10T05:45:26;14.57;;;4.88;;
52126;SDS011;38120;53.176;6.614;2022-11-10T05:47:53;16.55;;;5.10;;
52126;SDS011;38120;53.176;6.614;2022-11-10T05:50:19;11.73;;;3.83;;
52126;SDS011;38120;53.176;6.614;2022-11-10T05:52:47;16.30;;;5.95;;
52126;SDS011;38120;53.176;6.614;2022-11-10T05:55:14;15.10;;;4.80;;
52126;SDS011;38120;53.176;6.614;2022-11-10T05:57:43;20.02;;;5.07;;
52126;SDS011;38120;53.176;6.614;2022-11-10T06:00:11;15.40;;;5.53;;
52126;SDS011;38120;53.176;6.614;2022-11-10T06:02:38;13.27;;;4.57;;
52126;SDS011;38120;53.176;6.614;2022-11-10T06:05:04;11.55;;;4.78;;
52126;SDS011;38120;53.176;6.614;2022-11-10T06:07:30;13.20;;;4.65;;
52126;SDS011;38120;53.176;6.614;2022-11-10T06:09:56;18.98;;;4.65;;
52126;SDS011;38120;53.176;6.614;2022-11-10T06:12:22;13.67;;;5.53;;
52126;SDS011;38120;53.176;6.614;2022-11-10T06:14:49;12.27;;;4.47;;
52126;SDS011;38120;53.176;6.614;2022-11-10T06:17:16;18.63;;;6.13;;
52126;SDS011;38120;53.176;6.614;2022-11-10T06:19:42;15.07;;;5.72;;
52126;SDS011;38120;53.176;6.614;2022-11-10T06:22:08;24.57;;;5.37;;
52126;SDS011;38120;53.176;6.614;2022-11-10T06:24:34;20.43;;;4.77;;
52126;SDS011;38120;53.176;6.614;2022-11-10T06:26:59;14.77;;;4.05;;
52126;SDS011;38120;53.176;6.614;2022-11-10T06:29:25;16.00;;;4.57;;
52126;SDS011;38120;53.176;6.614;2022-11-10T06:31:51;17.63;;;4.33;;
52126;SDS011;38120;53.176;6.614;2022-11-10T06:34:17;19.75;;;4.18;;
52126;SDS011;38120;53.176;6.614;2022-11-10T06:36:42;19.33;;;5.53;;
52126;SDS011;38120;53.176;6.614;2022-11-10T06:39:08;12.77;;;4.77;;
52126;SDS011;38120;53.176;6.614;2022-11-10T06:41:34;11.67;;;4.23;;
52126;SDS011;38120;53.176;6.614;2022-11-10T06:43:59;17.73;;;4.97;;
52126;SDS011;38120;53.176;6.614;2022-11-10T06:46:25;20.73;;;4.80;;
52126;SDS011;38120;53.176;6.614;2022-11-10T06:48:51;11.90;;;4.72;;
52126;SDS011;38120;53.176;6.614;2022-11-10T06:51:17;14.70;;;4.03;;
52126;SDS011;38120;53.176;6.614;2022-11-10T06:53:42;17.50;;;4.63;;
52126;SDS011;38120;53.176;6.614;2022-11-10T06:56:08;14.30;;;4.33;;
52126;SDS011;38120;53.176;6.614;2022-11-10T06:58:34;17.50;;;5.32;;
52126;SDS011;38120;53.176;6.614;2022-11-10T07:00:59;15.20;;;5.03;;
52126;SDS011;38120;53.176;6.614;2022-11-10T07:03:26;17.70;;;5.25;;
52126;SDS011;38120;53.176;6.614;2022-11-10T07:05:52;18.27;;;5.53;;
52126;SDS011;38120;53.176;6.614;2022-11-10T07:08:17;19.40;;;5.78;;
52126;SDS011;38120;53.176;6.614;2022-11-10T07:10:44;20.60;;;5.43;;
52126;SDS011;38120;53.176;6.614;2022-11-10T07:13:14;18.15;;;6.40;;
52126;SDS011;38120;53.176;6.614;2022-11-10T07:15:41;15.95;;;6.05;;
52126;SDS011;38120;53.176;6.614;2022-11-10T07:18:07;14.32;;;5.85;;
52126;SDS011;38120;53.176;6.614;2022-11-10T07:20:33;20.98;;;6.30;;
52126;SDS011;38120;53.176;6.614;2022-11-10T07:23:00;15.13;;;4.85;;
52126;SDS011;38120;53.176;6.614;2022-11-10T07:25:27;23.08;;;6.57;;
52126;SDS011;38120;53.176;6.614;2022-11-10T07:27:54;21.30;;;6.18;;
52126;SDS011;38120;53.176;6.614;2022-11-10T07:30:21;23.60;;;6.35;;
52126;SDS011;38120;53.176;6.614;2022-11-10T07:32:56;18.25;;;6.32;;
52126;SDS011;38120;53.176;6.614;2022-11-10T07:35:30;15.15;;;5.85;;
52126;SDS011;38120;53.176;6.614;2022-11-10T07:37:56;14.10;;;6.22;;
52126;SDS011;38120;53.176;6.614;2022-11-10T07:40:25;18.92;;;5.70;;
52126;SDS011;38120;53.176;6.614;2022-11-10T07:42:51;19.47;;;6.53;;
52126;SDS011;38120;53.176;6.614;2022-11-10T07:45:16;15.67;;;5.67;;
52126;SDS011;38120;53.176;6.614;2022-11-10T07:47:42;14.77;;;5.63;;
52126;SDS011;38120;53.176;6.614;2022-11-10T07:50:08;20.17;;;5.90;;
52126;SDS011;38120;53.176;6.614;2022-11-10T07:52:34;16.70;;;5.60;;
52126;SDS011;38120;53.176;6.614;2022-11-10T07:54:59;19.97;;;7.37;;
52126;SDS011;38120;53.176;6.614;2022-11-10T07:57:25;15.77;;;6.47;;
52126;SDS011;38120;53.176;6.614;2022-11-10T07:59:51;19.33;;;6.00;;
52126;SDS011;38120;53.176;6.614;2022-11-10T08:02:17;13.80;;;6.13;;
52126;SDS011;38120;53.176;6.614;2022-11-10T08:04:42;15.20;;;5.03;;
52126;SDS011;38120;53.176;6.614;2022-11-10T08:07:08;16.55;;;6.05;;
52126;SDS011;38120;53.176;6.614;2022-11-10T08:09:34;15.83;;;5.87;;
52126;SDS011;38120;53.176;6.614;2022-11-10T08:12:00;19.70;;;6.28;;
52126;SDS011;38120;53.176;6.614;2022-11-10T08:14:26;14.50;;;5.90;;
52126;SDS011;38120;53.176;6.614;2022-11-10T08:16:51;17.83;;;6.30;;
52126;SDS011;38120;53.176;6.614;2022-11-10T08:19:17;14.77;;;5.83;;
52126;SDS011;38120;53.176;6.614;2022-11-10T08:21:42;23.03;;;6.83;;
52126;SDS011;38120;53.176;6.614;2022-11-10T08:24:08;23.63;;;7.63;;
52126;SDS011;38120;53.176;6.614;2022-11-10T08:26:34;23.52;;;6.47;;
52126;SDS011;38120;53.176;6.614;2022-11-10T08:29:00;22.57;;;6.53;;
52126;SDS011;38120;53.176;6.614;2022-11-10T08:31:25;22.47;;;6.47;;
52126;SDS011;38120;53.176;6.614;2022-11-10T08:33:51;21.77;;;8.35;;
52126;SDS011;38120;53.176;6.614;2022-11-10T08:36:17;15.68;;;6.18;;
52126;SDS011;38120;53.176;6.614;2022-11-10T08:38:42;19.83;;;6.07;;
52126;SDS011;38120;53.176;6.614;2022-11-10T08:41:08;26.27;;;7.33;;
52126;SDS011;38120;53.176;6.614;2022-11-10T08:43:34;22.90;;;6.23;;
52126;SDS011;38120;53.176;6.614;2022-11-10T08:45:59;20.60;;;6.70;;
52126;SDS011;38120;53.176;6.614;2022-11-10T08:48:28;18.48;;;6.20;;
52126;SDS011;38120;53.176;6.614;2022-11-10T08:50:54;21.77;;;8.90;;
52126;SDS011;38120;53.176;6.614;2022-11-10T08:53:22;23.33;;;7.13;;
52126;SDS011;38120;53.176;6.614;2022-11-10T08:55:49;11.43;;;5.22;;
52126;SDS011;38120;53.176;6.614;2022-11-10T08:58:16;17.33;;;5.38;;
52126;SDS011;38120;53.176;6.614;2022-11-10T09:00:45;19.60;;;6.47;;
52126;SDS011;38120;53.176;6.614;2022-11-10T09:03:12;19.00;;;6.45;;
52126;SDS011;38120;53.176;6.614;2022-11-10T09:05:40;14.75;;;5.82;;
52126;SDS011;38120;53.176;6.614;2022-11-10T09:10:33;19.38;;;5.75;;
52126;SDS011;38120;53.176;6.614;2022-11-10T09:13:00;15.88;;;5.55;;
52126;SDS011;38120;53.176;6.614;2022-11-10T09:17:53;15.82;;;5.25;;
52126;SDS011;38120;53.176;6.614;2022-11-10T09:20:21;12.13;;;4.97;;
52126;SDS011;38120;53.176;6.614;2022-11-10T09:22:46;20.17;;;5.45;;
52126;SDS011;38120;53.176;6.614;2022-11-10T09:25:12;12.10;;;5.50;;
52126;SDS011;38120;53.176;6.614;2022-11-10T09:27:38;13.83;;;5.30;;
52126;SDS011;38120;53.176;6.614;2022-11-10T09:30:04;11.50;;;3.85;;
52126;SDS011;38120;53.176;6.614;2022-11-10T09:32:31;16.75;;;5.10;;
52126;SDS011;38120;53.176;6.614;2022-11-10T09:34:57;12.50;;;4.47;;
52126;SDS011;38120;53.176;6.614;2022-11-10T09:37:23;20.80;;;6.03;;
52126;SDS011;38120;53.176;6.614;2022-11-10T09:39:49;22.63;;;5.30;;
52126;SDS011;38120;53.176;6.614;2022-11-10T09:42:35;22.03;;;5.20;;
52126;SDS011;38120;53.176;6.614;2022-11-10T09:47:45;20.38;;;5.47;;
52126;SDS011;38120;53.176;6.614;2022-11-10T09:50:29;21.88;;;6.63;;
52126;SDS011;38120;53.176;6.614;2022-11-10T09:53:04;17.70;;;5.78;;
52126;SDS011;38120;53.176;6.614;2022-11-10T09:55:41;18.63;;;6.40;;
52126;SDS011;38120;53.176;6.614;2022-11-10T09:58:10;16.55;;;7.35;;
52126;SDS011;38120;53.176;6.614;2022-11-10T10:00:37;15.05;;;6.63;;
52126;SDS011;38120;53.176;6.614;2022-11-10T10:03:11;18.73;;;6.68;;
52126;SDS011;38120;53.176;6.614;2022-11-10T10:05:47;17.45;;;6.80;;
52126;SDS011;38120;53.176;6.614;2022-11-10T10:13:47;18.20;;;6.40;;
52126;SDS011;38120;53.176;6.614;2022-11-10T10:16:22;15.25;;;6.70;;
52126;SDS011;38120;53.176;6.614;2022-11-10T10:24:40;14.73;;;5.63;;
52126;SDS011;38120;53.176;6.614;2022-11-10T10:27:09;13.53;;;5.20;;
52126;SDS011;38120;53.176;6.614;2022-11-10T10:29:45;10.82;;;5.72;;
52126;SDS011;38120;53.176;6.614;2022-11-10T10:32:13;20.15;;;5.63;;
52126;SDS011;38120;53.176;6.614;2022-11-10T10:34:40;21.65;;;6.60;;
52126;SDS011;38120;53.176;6.614;2022-11-10T10:37:21;27.00;;;6.05;;
52126;SDS011;38120;53.176;6.614;2022-11-10T10:39:50;15.68;;;5.35;;
52126;SDS011;38120;53.176;6.614;2022-11-10T10:42:27;15.77;;;6.85;;
52126;SDS011;38120;53.176;6.614;2022-11-10T10:47:42;19.25;;;6.90;;
52126;SDS011;38120;53.176;6.614;2022-11-10T10:52:40;14.02;;;6.70;;
52126;SDS011;38120;53.176;6.614;2022-11-10T10:55:06;17.23;;;4.87;;
52126;SDS011;38120;53.176;6.614;2022-11-10T10:57:32;15.93;;;6.20;;
52126;SDS011;38120;53.176;6.614;2022-11-10T11:05:25;13.55;;;5.97;;
52126;SDS011;38120;53.176;6.614;2022-11-10T11:07:54;17.63;;;6.68;;
52126;SDS011;38120;53.176;6.614;2022-11-10T11:10:31;18.08;;;7.32;;
52126;SDS011;38120;53.176;6.614;2022-11-10T11:13:12;26.27;;;7.40;;
52126;SDS011;38120;53.176;6.614;2022-11-10T11:15:38;16.98;;;7.20;;
52126;SDS011;38120;53.176;6.614;2022-11-10T11:18:10;20.55;;;6.88;;
52126;SDS011;38120;53.176;6.614;2022-11-10T11:26:01;16.23;;;5.63;;
52126;SDS011;38120;53.176;6.614;2022-11-10T11:28:40;20.42;;;7.13;;
52126;SDS011;38120;53.176;6.614;2022-11-10T11:31:19;15.73;;;6.38;;
52126;SDS011;38120;53.176;6.614;2022-11-10T11:33:59;14.15;;;6.90;;
52126;SDS011;38120;53.176;6.614;2022-11-10T11:47:40;24.10;;;7.13;;
52126;SDS011;38120;53.176;6.614;2022-11-10T12:02:08;19.80;;;5.97;;
52126;SDS011;38120;53.176;6.614;2022-11-10T12:04:44;17.37;;;4.87;;
52126;SDS011;38120;53.176;6.614;2022-11-10T12:10:03;16.83;;;4.47;;
52126;SDS011;38120;53.176;6.614;2022-11-10T12:18:27;12.40;;;4.38;;
52126;SDS011;38120;53.176;6.614;2022-11-10T12:23:53;13.98;;;3.67;;
52126;SDS011;38120;53.176;6.614;2022-11-10T12:31:39;11.13;;;4.53;;
52126;SDS011;38120;53.176;6.614;2022-11-10T12:37:00;19.92;;;4.13;;
52126;SDS011;38120;53.176;6.614;2022-11-10T12:42:07;10.90;;;3.88;;
52126;SDS011;38120;53.176;6.614;2022-11-10T12:44:53;11.45;;;3.38;;
52126;SDS011;38120;53.176;6.614;2022-11-10T12:47:20;17.92;;;5.15;;
52126;SDS011;38120;53.176;6.614;2022-11-10T12:49:55;15.98;;;4.65;;
52126;SDS011;38120;53.176;6.614;2022-11-10T12:52:42;14.88;;;4.30;;
52126;SDS011;38120;53.176;6.614;2022-11-10T12:55:15;15.45;;;5.53;;
52126;SDS011;38120;53.176;6.614;2022-11-10T12:57:41;16.85;;;3.80;;
52126;SDS011;38120;53.176;6.614;2022-11-10T13:00:28;15.82;;;4.63;;
52126;SDS011;38120;53.176;6.614;2022-11-10T13:02:57;12.90;;;4.28;;
52126;SDS011;38120;53.176;6.614;2022-11-10T13:08:12;10.80;;;4.40;;
52126;SDS011;38120;53.176;6.614;2022-11-10T13:11:02;11.20;;;3.95;;
52126;SDS011;38120;53.176;6.614;2022-11-10T13:13:38;10.80;;;3.72;;
52126;SDS011;38120;53.176;6.614;2022-11-10T13:34:42;13.37;;;4.87;;
52126;SDS011;38120;53.176;6.614;2022-11-10T13:45:43;11.15;;;3.78;;
52126;SDS011;38120;53.176;6.614;2022-11-10T13:59:21;15.38;;;4.60;;
52126;SDS011;38120;53.176;6.614;2022-11-10T14:01:49;10.93;;;3.75;;
52126;SDS011;38120;53.176;6.614;2022-11-10T14:06:59;11.68;;;2.75;;
52126;SDS011;38120;53.176;6.614;2022-11-10T14:09:33;8.38;;;2.78;;
52126;SDS011;38120;53.176;6.614;2022-11-10T14:12:05;9.00;;;3.05;;
52126;SDS011;38120;53.176;6.614;2022-11-10T14:14:58;9.98;;;2.83;;
52126;SDS011;38120;53.176;6.614;2022-11-10T14:17:28;8.35;;;3.45;;
52126;SDS011;38120;53.176;6.614;2022-11-10T14:19:58;15.15;;;3.47;;
52126;SDS011;38120;53.176;6.614;2022-11-10T14:22:39;11.10;;;3.38;;
52126;SDS011;38120;53.176;6.614;2022-11-10T14:25:27;11.82;;;3.60;;
52126;SDS011;38120;53.176;6.614;2022-11-10T14:27:54;19.65;;;4.15;;
52126;SDS011;38120;53.176;6.614;2022-11-10T14:32:56;16.10;;;3.30;;
52126;SDS011;38120;53.176;6.614;2022-11-10T14:35:28;14.52;;;3.65;;
52126;SDS011;38120;53.176;6.614;2022-11-10T14:37:59;11.07;;;3.83;;
52126;SDS011;38120;53.176;6.614;2022-11-10T14:40:27;14.07;;;3.58;;
52126;SDS011;38120;53.176;6.614;2022-11-10T14:42:54;17.15;;;4.03;;
52126;SDS011;38120;53.176;6.614;2022-11-10T14:45:21;11.73;;;3.15;;
52126;SDS011;38120;53.176;6.614;2022-11-10T14:47:56;15.95;;;3.63;;
52126;SDS011;38120;53.176;6.614;2022-11-10T14:50:27;12.00;;;4.07;;
52126;SDS011;38120;53.176;6.614;2022-11-10T14:55:53;14.50;;;4.03;;
52126;SDS011;38120;53.176;6.614;2022-11-10T14:58:21;15.25;;;4.47;;
52126;SDS011;38120;53.176;6.614;2022-11-10T15:00:55;13.98;;;3.72;;
52126;SDS011;38120;53.176;6.614;2022-11-10T15:03:37;13.77;;;3.58;;
52126;SDS011;38120;53.176;6.614;2022-11-10T15:06:09;10.90;;;3.70;;
52126;SDS011;38120;53.176;6.614;2022-11-10T15:08:36;12.68;;;4.07;;
52126;SDS011;38120;53.176;6.614;2022-11-10T15:18:46;21.90;;;3.80;;
52126;SDS011;38120;53.176;6.614;2022-11-10T15:21:15;11.88;;;3.75;;
52126;SDS011;38120;53.176;6.614;2022-11-10T15:23:44;11.30;;;4.30;;
52126;SDS011;38120;53.176;6.614;2022-11-10T15:26:26;19.00;;;4.53;;
52126;SDS011;38120;53.176;6.614;2022-11-10T15:28:56;8.88;;;3.33;;
52126;SDS011;38120;53.176;6.614;2022-11-10T15:31:23;10.35;;;3.40;;
52126;SDS011;38120;53.176;6.614;2022-11-10T15:33:52;8.07;;;4.53;;
52126;SDS011;38120;53.176;6.614;2022-11-10T15:41:36;15.20;;;4.15;;
52126;SDS011;38120;53.176;6.614;2022-11-10T15:44:22;14.80;;;4.72;;
52126;SDS011;38120;53.176;6.614;2022-11-10T15:46:50;9.73;;;3.38;;
52126;SDS011;38120;53.176;6.614;2022-11-10T15:51:48;12.48;;;3.85;;
52126;SDS011;38120;53.176;6.614;2022-11-10T15:54:16;13.30;;;4.18;;
52126;SDS011;38120;53.176;6.614;2022-11-10T15:56:45;12.60;;;3.80;;
52126;SDS011;38120;53.176;6.614;2022-11-10T15:59:11;11.65;;;3.63;;
52126;SDS011;38120;53.176;6.614;2022-11-10T16:01:37;8.82;;;3.38;;
52126;SDS011;38120;53.176;6.614;2022-11-10T16:04:03;14.55;;;4.30;;
52126;SDS011;38120;53.176;6.614;2022-11-10T16:06:32;12.85;;;3.60;;
52126;SDS011;38120;53.176;6.614;2022-11-10T16:08:58;17.50;;;3.88;;
52126;SDS011;38120;53.176;6.614;2022-11-10T16:11:24;9.73;;;3.70;;
52126;SDS011;38120;53.176;6.614;2022-11-10T16:13:50;16.08;;;4.60;;
52126;SDS011;38120;53.176;6.614;2022-11-10T16:18:43;15.57;;;3.92;;
52126;SDS011;38120;53.176;6.614;2022-11-10T16:21:10;12.68;;;4.00;;
52126;SDS011;38120;53.176;6.614;2022-11-10T16:23:44;16.30;;;4.05;;
52126;SDS011;38120;53.176;6.614;2022-11-10T16:26:17;14.23;;;4.50;;
52126;SDS011;38120;53.176;6.614;2022-11-10T16:28:46;10.20;;;3.78;;
52126;SDS011;38120;53.176;6.614;2022-11-10T16:31:12;10.38;;;3.58;;
52126;SDS011;38120;53.176;6.614;2022-11-10T16:33:39;8.63;;;2.80;;
52126;SDS011;38120;53.176;6.614;2022-11-10T16:36:10;12.65;;;3.72;;
52126;SDS011;38120;53.176;6.614;2022-11-10T16:38:48;11.02;;;3.38;;
52126;SDS011;38120;53.176;6.614;2022-11-10T16:41:14;11.23;;;3.60;;
52126;SDS011;38120;53.176;6.614;2022-11-10T16:43:40;8.68;;;3.85;;
52126;SDS011;38120;53.176;6.614;2022-11-10T16:46:14;15.98;;;3.95;;
52126;SDS011;38120;53.176;6.614;2022-11-10T16:48:47;11.45;;;4.20;;
52126;SDS011;38120;53.176;6.614;2022-11-10T16:51:15;8.80;;;3.53;;
52126;SDS011;38120;53.176;6.614;2022-11-10T16:53:42;11.75;;;4.07;;
52126;SDS011;38120;53.176;6.614;2022-11-10T16:56:12;9.77;;;3.80;;
52126;SDS011;38120;53.176;6.614;2022-11-10T16:58:39;12.40;;;3.88;;
52126;SDS011;38120;53.176;6.614;2022-11-10T17:01:04;14.63;;;3.77;;
52126;SDS011;38120;53.176;6.614;2022-11-10T17:03:36;14.35;;;3.72;;
52126;SDS011;38120;53.176;6.614;2022-11-10T17:06:09;10.80;;;4.00;;
52126;SDS011;38120;53.176;6.614;2022-11-10T17:08:37;14.65;;;3.90;;
52126;SDS011;38120;53.176;6.614;2022-11-10T17:11:04;18.00;;;4.63;;
52126;SDS011;38120;53.176;6.614;2022-11-10T17:13:30;14.32;;;3.20;;
52126;SDS011;38120;53.176;6.614;2022-11-10T17:15:59;11.98;;;3.50;;
52126;SDS011;38120;53.176;6.614;2022-11-10T17:18:30;13.98;;;3.25;;
52126;SDS011;38120;53.176;6.614;2022-11-10T17:20:58;11.88;;;4.40;;
52126;SDS011;38120;53.176;6.614;2022-11-10T17:23:25;9.23;;;3.35;;
52126;SDS011;38120;53.176;6.614;2022-11-10T17:25:50;13.07;;;3.78;;